Time;durP1;ratioP1;P1;durP2;ratioP2;P2;SDS_P1;SDS_P2;PMS_P1;PMS_P2;Temp;Humidity;BMP_temperature;BMP_pressure;BME280_temperature;BME280_humidity;BME280_pressure;Samples;Min_cycle;Max_cycle;Signal;HPM_P1;HPM_P2
2022/07/29 00:02:19;;;;;;;;;;;;;;;18.68;48.28;101863.19;5041042;28;19966;-56
2022/07/29 00:04:45;;;;;;;;;;;;;;;18.65;48.42;101866.91;5039658;28;20007;-55
2022/07/29 00:07:10;;;;;;;;;;;;;;;18.63;48.52;101857.34;5038916;28;24309;-56
2022/07/29 00:09:35;;;;;;;;;;;;;;;18.63;48.45;101855.50;5044525;28;19932;-56
2022/07/29 00:12:01;;;;;;;;;;;;;;;18.62;48.74;101861.78;5034050;28;20395;-56
2022/07/29 00:14:27;;;;;;;;;;;;;;;18.60;48.80;101863.75;5036619;28;19921;-55
2022/07/29 00:16:52;;;;;;;;;;;;;;;18.58;48.81;101863.00;5039380;28;20304;-56
2022/07/29 00:19:18;;;;;;;;;;;;;;;18.55;48.88;101856.06;5042124;28;19928;-56
2022/07/29 00:21:43;;;;;;;;;;;;;;;18.51;49.06;101854.63;5039735;28;20404;-55
2022/07/29 00:24:08;;;;;;;;;;;;;;;18.49;48.96;101861.88;5030347;28;20337;-53
2022/07/29 00:26:34;;;;;;;;;;;;;;;18.47;48.99;101858.47;5034728;28;20284;-55
2022/07/29 00:29:00;;;;;;;;;;;;;;;18.43;49.02;101854.31;5041466;28;20000;-55
2022/07/29 00:31:26;;;;;;;;;;;;;;;18.40;49.00;101860.75;5035177;28;20325;-55
2022/07/29 00:33:52;;;;;;;;;;;;;;;18.38;49.26;101860.00;5036656;28;19932;-55
2022/07/29 00:36:17;;;;;;;;;;;;;;;18.34;49.18;101852.34;5037006;28;19920;-55
2022/07/29 00:38:44;;;;;;;;;;;;;;;18.30;49.33;101849.06;5053082;28;19965;-54
2022/07/29 00:41:11;;;;;;;;;;;;;;;18.27;49.43;101850.13;5037920;28;20022;-57
2022/07/29 00:43:36;;;;;;;;;;;;;;;18.26;49.50;101851.06;5042674;28;19923;-54
2022/07/29 00:46:01;;;;;;;;;;;;;;;18.25;49.49;101848.53;5038535;28;19920;-55
2022/07/29 00:48:26;;;;;;;;;;;;;;;18.24;49.65;101857.50;5048314;28;19924;-55
2022/07/29 00:50:52;;;;;;;;;;;;;;;18.22;49.72;101854.94;5041675;28;19908;-52
2022/07/29 00:53:19;;;;;;;;;;;;;;;18.21;49.97;101852.38;5032459;28;19917;-53
2022/07/29 00:55:44;;;;;;;;;;;;;;;18.17;49.84;101854.41;5037954;28;19917;-58
2022/07/29 00:58:11;;;;;;;;;;;;;;;18.17;49.79;101861.53;5035976;28;19924;-56
2022/07/29 01:00:36;;;;;;;;;;;;;;;18.16;50.01;101860.72;5043527;28;20291;-55
2022/07/29 01:03:02;;;;;;;;;;;;;;;18.14;50.02;101857.31;5035546;28;19916;-56
2022/07/29 01:05:28;;;;;;;;;;;;;;;18.11;49.93;101854.84;5032751;28;19963;-57
2022/07/29 01:07:54;;;;;;;;;;;;;;;18.09;50.06;101852.31;5048283;28;19920;-55
2022/07/29 01:10:20;;;;;;;;;;;;;;;18.08;50.12;101852.41;5042754;28;19920;-54
2022/07/29 01:12:47;;;;;;;;;;;;;;;18.04;50.09;101849.13;5040201;28;19917;-54
2022/07/29 01:15:13;;;;;;;;;;;;;;;17.99;50.29;101843.28;5043851;28;21156;-56
2022/07/29 01:17:38;;;;;;;;;;;;;;;17.92;50.47;101850.81;5042726;28;19933;-54
2022/07/29 01:20:12;;;;;;;;;;;;;;;17.85;50.41;101852.22;5036668;28;19916;-56
2022/07/29 01:23:04;;;;;;;;;;;;;;;17.79;50.70;101842.00;5034070;28;20821;-55
2022/07/29 01:25:48;;;;;;;;;;;;;;;17.77;50.75;101834.13;5037416;28;20003;-59
2022/07/29 01:28:32;;;;;;;;;;;;;;;17.75;50.69;101835.22;5046090;28;19913;-59
2022/07/29 01:30:58;;;;;;;;;;;;;;;17.67;50.91;101823.28;5038606;28;19912;-58
2022/07/29 01:36:14;;;;;;;;;;;;;;;17.62;51.12;101816.59;5034541;28;19935;-59
2022/07/29 01:38:42;;;;;;;;;;;;;;;17.60;51.30;101819.38;5042914;28;19920;-59
2022/07/29 01:41:14;;;;;;;;;;;;;;;17.62;51.24;101813.94;5035658;28;19952;-56
2022/07/29 01:44:06;;;;;;;;;;;;;;;17.62;51.05;101809.44;5041841;28;20296;-59
2022/07/29 01:46:33;;;;;;;;;;;;;;;17.60;51.29;101813.19;5033438;28;20007;-57
2022/07/29 01:49:01;;;;;;;;;;;;;;;17.59;51.35;101808.81;5045962;28;19912;-56
2022/07/29 01:51:40;;;;;;;;;;;;;;;17.59;51.22;101806.16;5039127;28;19995;-57
2022/07/29 01:54:08;;;;;;;;;;;;;;;17.61;51.22;101804.25;5040159;28;20007;-58
2022/07/29 01:56:35;;;;;;;;;;;;;;;17.61;51.38;101805.09;5043281;28;19916;-55
2022/07/29 01:59:02;;;;;;;;;;;;;;;17.61;51.37;101806.91;5047260;28;20008;-53
2022/07/29 02:01:29;;;;;;;;;;;;;;;17.60;51.44;101814.06;5034625;28;20046;-57
2022/07/29 02:03:56;;;;;;;;;;;;;;;17.59;51.41;101807.03;5047651;28;19966;-59
2022/07/29 02:06:23;;;;;;;;;;;;;;;17.57;51.62;101800.94;5050356;28;19931;-55
2022/07/29 02:08:50;;;;;;;;;;;;;;;17.56;51.66;101804.56;5040719;28;19916;-55
2022/07/29 02:11:15;;;;;;;;;;;;;;;17.54;51.56;101798.50;5045510;28;20701;-57
2022/07/29 02:13:41;;;;;;;;;;;;;;;17.52;51.67;101793.31;5041871;28;19921;-57
2022/07/29 02:16:08;;;;;;;;;;;;;;;17.46;51.67;101793.72;5044500;28;19931;-55
2022/07/29 02:18:36;;;;;;;;;;;;;;;17.41;51.95;101789.69;5034443;28;19929;-53
2022/07/29 02:21:03;;;;;;;;;;;;;;;17.36;52.04;101782.88;5040382;28;20276;-56
2022/07/29 02:23:30;;;;;;;;;;;;;;;17.34;52.15;101787.44;5040686;28;19925;-54
2022/07/29 02:25:56;;;;;;;;;;;;;;;17.31;52.13;101781.50;5045129;28;19912;-57
2022/07/29 02:28:26;;;;;;;;;;;;;;;17.29;52.09;101778.97;5045467;28;19970;-55
2022/07/29 02:30:53;;;;;;;;;;;;;;;17.27;52.14;101780.88;5047572;28;19924;-56
2022/07/29 02:33:19;;;;;;;;;;;;;;;17.25;52.25;101782.78;5040753;28;19917;-54
2022/07/29 02:35:46;;;;;;;;;;;;;;;17.19;52.47;101768.09;5041791;28;19920;-56
2022/07/29 02:40:57;;;;;;;;;;;;;;;17.19;52.58;101764.56;5037206;28;19934;-53
2022/07/29 02:43:22;;;;;;;;;;;;;;;17.18;52.62;101765.53;5042827;28;20396;-57
2022/07/29 02:45:50;;;;;;;;;;;;;;;17.20;52.59;101760.97;5045411;28;19919;-59
2022/07/29 02:48:16;;;;;;;;;;;;;;;17.20;52.64;101760.97;5032616;28;19959;-55
2022/07/29 02:50:50;;;;;;;;;;;;;;;17.18;52.74;101750.44;5038994;28;19917;-57
2022/07/29 02:53:19;;;;;;;;;;;;;;;17.17;52.68;101750.53;5044376;28;20004;-58
2022/07/29 02:55:51;;;;;;;;;;;;;;;17.17;52.69;101750.53;5043032;28;19950;-55
2022/07/29 02:58:33;;;;;;;;;;;;;;;17.15;52.84;101757.78;5044861;28;19924;-57
2022/07/29 03:01:01;;;;;;;;;;;;;;;17.12;52.86;101748.19;5044689;28;20290;-55
2022/07/29 03:03:29;;;;;;;;;;;;;;;17.10;52.97;101750.13;5037604;28;20645;-54
2022/07/29 03:05:55;;;;;;;;;;;;;;;17.10;53.17;101751.94;5043653;28;19944;-57
2022/07/29 03:08:21;;;;;;;;;;;;;;;17.11;53.09;101757.13;5044809;28;19921;-56
2022/07/29 03:10:47;;;;;;;;;;;;;;;17.10;53.20;101749.28;5042207;28;20051;-56
2022/07/29 03:13:14;;;;;;;;;;;;;;;17.08;52.92;101754.72;5043358;28;19925;-53
2022/07/29 03:15:39;;;;;;;;;;;;;;;17.06;53.31;101752.13;5039747;28;19924;-55
2022/07/29 03:18:05;;;;;;;;;;;;;;;17.05;53.42;101761.06;5044482;28;19920;-55
2022/07/29 03:20:31;;;;;;;;;;;;;;;17.06;53.40;101769.91;5034546;28;19917;-56
2022/07/29 03:22:56;;;;;;;;;;;;;;;17.05;53.47;101766.38;5037119;28;19921;-57
2022/07/29 03:25:21;;;;;;;;;;;;;;;17.07;53.63;101774.28;5038981;28;20016;-58
2022/07/29 03:27:47;;;;;;;;;;;;;;;17.08;53.58;101778.66;5041798;28;19917;-56
2022/07/29 03:30:13;;;;;;;;;;;;;;;17.10;53.46;101775.88;5046669;28;20391;-57
2022/07/29 03:32:39;;;;;;;;;;;;;;;17.10;53.52;101765.22;5043335;28;19927;-55
2022/07/29 03:35:04;;;;;;;;;;;;;;;17.09;53.65;101784.81;5039180;28;19940;-57
2022/07/29 03:37:30;;;;;;;;;;;;;;;17.08;53.70;101775.97;5043449;28;19933;-58
2022/07/29 03:39:56;;;;;;;;;;;;;;;17.08;53.82;101777.78;5038861;28;19924;-58
2022/07/29 03:42:24;;;;;;;;;;;;;;;17.09;53.81;101774.16;5035235;28;19925;-57
2022/07/29 03:44:50;;;;;;;;;;;;;;;17.10;53.78;101775.88;5045498;28;19917;-60
2022/07/29 03:47:17;;;;;;;;;;;;;;;17.11;53.79;101767.78;5045120;28;19974;-56
2022/07/29 03:49:44;;;;;;;;;;;;;;;17.13;53.87;101765.03;5049199;28;19917;-56
2022/07/29 03:52:09;;;;;;;;;;;;;;;17.12;53.94;101769.47;5048023;28;19932;-56
2022/07/29 03:54:35;;;;;;;;;;;;;;;17.14;53.79;101772.88;5047258;28;19916;-57
2022/07/29 03:57:01;;;;;;;;;;;;;;;17.16;54.03;101784.28;5046386;28;20003;-58
2022/07/29 03:59:26;;;;;;;;;;;;;;;17.18;53.98;101778.81;5046541;28;20816;-59
2022/07/29 04:01:52;;;;;;;;;;;;;;;17.19;54.02;101781.41;5041444;28;20329;-56
2022/07/29 04:04:18;;;;;;;;;;;;;;;17.21;54.14;101778.63;5038783;28;19913;-56
2022/07/29 04:06:44;;;;;;;;;;;;;;;17.23;54.23;101781.19;5040479;28;19920;-53
2022/07/29 04:09:10;;;;;;;;;;;;;;;17.23;54.21;101776.72;5044913;28;19917;-56
2022/07/29 04:11:37;;;;;;;;;;;;;;;17.26;54.24;101771.19;5039496;28;19912;-54
2022/07/29 04:14:03;;;;;;;;;;;;;;;17.30;54.06;101772.69;5046589;28;19982;-54
2022/07/29 04:16:28;;;;;;;;;;;;;;;17.33;54.15;101772.44;5042892;28;20375;-55
2022/07/29 04:18:53;;;;;;;;;;;;;;;17.36;54.20;101774.88;5032531;28;19924;-55
2022/07/29 04:21:19;;;;;;;;;;;;;;;17.37;54.18;101779.25;5033803;28;19964;-54
2022/07/29 04:23:48;;;;;;;;;;;;;;;17.37;54.35;101775.75;5035504;28;19958;-52
2022/07/29 04:26:13;;;;;;;;;;;;;;;17.41;54.20;101768.41;5035835;28;20311;-53
2022/07/29 04:28:40;;;;;;;;;;;;;;;17.39;54.21;101765.88;5047822;28;20440;-56
2022/07/29 04:31:05;;;;;;;;;;;;;;;17.40;54.13;101767.53;5038756;28;20325;-54
2022/07/29 04:33:30;;;;;;;;;;;;;;;17.42;54.31;101765.63;5046270;28;20375;-51
2022/07/29 04:35:56;;;;;;;;;;;;;;;17.44;54.37;101773.50;5031824;28;19928;-54
2022/07/29 04:38:21;;;;;;;;;;;;;;;17.42;54.41;101770.94;5039422;28;20018;-52
2022/07/29 04:40:47;;;;;;;;;;;;;;;17.43;54.58;101766.50;5036950;28;19955;-55
2022/07/29 04:43:12;;;;;;;;;;;;;;;17.44;54.35;101765.53;5058880;28;19963;-55
2022/07/29 04:45:37;;;;;;;;;;;;;;;17.47;54.64;101758.19;5046346;28;19948;-51
2022/07/29 04:48:03;;;;;;;;;;;;;;;17.51;54.66;101758.81;5037494;28;19917;-54
2022/07/29 04:50:28;;;;;;;;;;;;;;;17.56;54.69;101764.66;5041494;28;19920;-56
2022/07/29 04:52:53;;;;;;;;;;;;;;;17.61;54.75;101762.53;5038678;28;20002;-51
2022/07/29 04:55:19;;;;;;;;;;;;;;;17.66;54.66;101760.38;5031444;28;19970;-54
2022/07/29 04:57:44;;;;;;;;;;;;;;;17.70;54.61;101762.81;5040284;28;19913;-55
2022/07/29 05:00:10;;;;;;;;;;;;;;;17.75;54.47;101755.34;5038124;28;19916;-51
2022/07/29 05:02:35;;;;;;;;;;;;;;;17.78;54.47;101757.78;5037516;28;19912;-51
2022/07/29 05:05:01;;;;;;;;;;;;;;;17.82;54.59;101756.59;5047945;28;19912;-52
2022/07/29 05:07:26;;;;;;;;;;;;;;;17.85;54.68;101755.53;5033640;28;19935;-52
2022/07/29 05:09:52;;;;;;;;;;;;;;;17.86;54.61;101750.09;5041250;28;19916;-51
2022/07/29 05:12:18;;;;;;;;;;;;;;;17.88;54.57;101758.81;5045904;28;20054;-53
2022/07/29 05:14:43;;;;;;;;;;;;;;;17.90;54.58;101759.56;5046313;28;20014;-55
2022/07/29 05:17:08;;;;;;;;;;;;;;;17.92;54.69;101759.44;5037356;28;20061;-53
2022/07/29 05:19:33;;;;;;;;;;;;;;;17.95;54.78;101756.56;5041689;28;19925;-51
2022/07/29 05:21:59;;;;;;;;;;;;;;;18.00;54.97;101758.91;5042350;28;19924;-51
2022/07/29 05:24:25;;;;;;;;;;;;;;;18.05;54.92;101754.13;5042341;28;19960;-51
2022/07/29 05:26:50;;;;;;;;;;;;;;;18.11;54.77;101748.31;5040594;28;19921;-56
2022/07/29 05:29:15;;;;;;;;;;;;;;;18.18;54.98;101756.69;5048923;28;20304;-54
2022/07/29 05:31:41;;;;;;;;;;;;;;;18.23;54.81;101760.72;5042637;28;20372;-50
2022/07/29 05:34:06;;;;;;;;;;;;;;;18.28;54.92;101758.56;5044092;28;21198;-51
2022/07/29 05:36:31;;;;;;;;;;;;;;;18.34;54.75;101756.44;5049183;28;19943;-51
2022/07/29 05:38:57;;;;;;;;;;;;;;;18.38;54.55;101756.06;5049687;28;19927;-51
2022/07/29 05:41:22;;;;;;;;;;;;;;;18.41;54.58;101760.31;5042823;28;20380;-52
2022/07/29 05:43:48;;;;;;;;;;;;;;;18.42;54.61;101765.56;5037767;28;19970;-54
2022/07/29 05:46:16;;;;;;;;;;;;;;;18.48;54.50;101756.25;5044097;28;19916;-51
2022/07/29 05:48:41;;;;;;;;;;;;;;;18.51;54.54;101760.47;5051623;28;20010;-51
2022/07/29 05:51:06;;;;;;;;;;;;;;;18.54;54.38;101766.41;5044871;28;20059;-52
2022/07/29 05:53:32;;;;;;;;;;;;;;;18.58;54.53;101765.22;5054271;28;20264;-51
2022/07/29 05:55:57;;;;;;;;;;;;;;;18.63;54.36;101764.03;5051063;28;20375;-52
2022/07/29 05:58:23;;;;;;;;;;;;;;;18.67;54.46;101762.84;5042575;28;19928;-53
2022/07/29 06:00:48;;;;;;;;;;;;;;;18.70;54.46;101765.25;5043293;28;19920;-51
2022/07/29 06:03:13;;;;;;;;;;;;;;;18.73;54.37;101763.22;5047467;28;19913;-53
2022/07/29 06:05:39;;;;;;;;;;;;;;;18.77;54.43;101761.16;5043482;28;19924;-56
2022/07/29 06:08:06;;;;;;;;;;;;;;;18.79;54.35;101766.38;5047725;28;19920;-52
2022/07/29 06:10:32;;;;;;;;;;;;;;;18.82;54.38;101759.00;5040468;28;19921;-54
2022/07/29 06:12:57;;;;;;;;;;;;;;;18.87;54.09;101761.31;5049632;28;19912;-54
2022/07/29 06:15:23;;;;;;;;;;;;;;;18.88;54.25;101755.03;5044908;28;19924;-52
2022/07/29 06:17:48;;;;;;;;;;;;;;;18.90;54.22;101755.75;5046684;28;20071;-52
2022/07/29 06:20:13;;;;;;;;;;;;;;;18.93;54.42;101757.31;5048490;28;20288;-52
2022/07/29 06:22:38;;;;;;;;;;;;;;;18.96;54.21;101755.28;5052229;28;19931;-52
2022/07/29 06:25:04;;;;;;;;;;;;;;;19.01;54.31;101749.59;5038296;28;19924;-52
2022/07/29 06:27:29;;;;;;;;;;;;;;;19.05;54.24;101748.41;5048180;28;19916;-53
2022/07/29 06:29:55;;;;;;;;;;;;;;;19.09;53.82;101755.19;5045486;28;19917;-56
2022/07/29 06:32:21;;;;;;;;;;;;;;;19.14;53.88;101753.00;5045081;28;19916;-56
2022/07/29 06:34:46;;;;;;;;;;;;;;;19.16;53.91;101753.72;5052305;28;19916;-59
2022/07/29 06:37:12;;;;;;;;;;;;;;;19.23;53.76;101745.25;5059406;28;20330;-57
2022/07/29 06:39:37;;;;;;;;;;;;;;;19.25;53.71;101746.00;5055274;28;19921;-59
2022/07/29 06:42:06;;;;;;;;;;;;;;;19.29;53.73;101752.75;5033877;28;19983;-54
2022/07/29 06:44:33;;;;;;;;;;;;;;;19.35;53.98;101760.28;5045077;28;19928;-52
2022/07/29 06:46:59;;;;;;;;;;;;;;;19.38;53.77;101760.06;5045576;28;19975;-51
2022/07/29 06:49:25;;;;;;;;;;;;;;;19.44;53.64;101750.72;5049235;28;20004;-56
2022/07/29 06:51:51;;;;;;;;;;;;;;;19.48;53.86;101749.50;5044910;28;19967;-51
2022/07/29 06:54:16;;;;;;;;;;;;;;;19.52;53.64;101752.75;5045656;28;19989;-57
2022/07/29 06:56:42;;;;;;;;;;;;;;;19.55;53.42;101753.38;5045743;28;20407;-53
2022/07/29 06:59:09;;;;;;;;;;;;;;;19.60;53.34;101751.19;5044345;28;20398;-50
2022/07/29 07:01:35;;;;;;;;;;;;;;;19.65;53.43;101753.47;5047949;28;19912;-51
2022/07/29 07:04:00;;;;;;;;;;;;;;;19.69;53.25;101752.25;5049027;28;19912;-55
2022/07/29 07:06:26;;;;;;;;;;;;;;;19.73;53.33;101756.41;5041289;28;19939;-51
2022/07/29 07:08:51;;;;;;;;;;;;;;;19.77;53.55;101746.31;5048292;28;20394;-55
2022/07/29 07:11:17;;;;;;;;;;;;;;;19.80;53.19;101752.25;5048065;28;19923;-53
2022/07/29 07:13:42;;;;;;;;;;;;;;;19.86;53.08;101750.06;5051263;28;19920;-55
2022/07/29 07:16:07;;;;;;;;;;;;;;;19.90;53.26;101747.03;5046982;28;20019;-51
2022/07/29 07:18:32;;;;;;;;;;;;;;;19.95;53.20;101750.19;5049509;28;20400;-51
2022/07/29 07:20:58;;;;;;;;;;;;;;;19.99;53.23;101744.56;5048041;28;19943;-52
2022/07/29 07:23:23;;;;;;;;;;;;;;;20.01;53.02;101751.50;5047995;28;20372;-54
2022/07/29 07:25:49;;;;;;;;;;;;;;;20.03;53.10;101744.22;5046674;28;19970;-51
2022/07/29 07:28:14;;;;;;;;;;;;;;;20.06;53.30;101751.94;5046909;28;19959;-51
2022/07/29 07:30:39;;;;;;;;;;;;;;;20.12;53.26;101747.09;5047789;28;19921;-52
2022/07/29 07:33:05;;;;;;;;;;;;;;;20.18;53.14;101746.59;5045083;28;19920;-50
2022/07/29 07:35:30;;;;;;;;;;;;;;;20.25;53.20;101747.75;5046364;28;19920;-51
2022/07/29 07:37:55;;;;;;;;;;;;;;;20.28;52.97;101750.19;5045276;28;19912;-53
2022/07/29 07:40:21;;;;;;;;;;;;;;;20.32;53.12;101756.13;5048166;28;19932;-51
2022/07/29 07:42:46;;;;;;;;;;;;;;;20.34;53.20;101749.69;5047778;28;19913;-52
2022/07/29 07:45:12;;;;;;;;;;;;;;;20.42;52.79;101759.69;5044222;28;19925;-53
2022/07/29 07:47:38;;;;;;;;;;;;;;;20.48;52.98;101761.88;5043914;28;19913;-53
2022/07/29 07:50:07;;;;;;;;;;;;;;;20.55;52.78;101752.38;5051930;28;20371;-51
2022/07/29 07:52:32;;;;;;;;;;;;;;;20.62;52.61;101746.47;5047023;28;19927;-52
2022/07/29 07:54:58;;;;;;;;;;;;;;;20.66;52.63;101740.75;5045861;28;19991;-50
2022/07/29 07:57:32;;;;;;;;;;;;;;;20.68;52.78;101741.47;5049660;28;19919;-52
2022/07/29 07:59:57;;;;;;;;;;;;;;;20.71;52.54;101743.88;5052003;28;19921;-52
2022/07/29 08:02:22;;;;;;;;;;;;;;;20.75;52.44;101748.97;5045601;28;20285;-55
2022/07/29 08:04:48;;;;;;;;;;;;;;;20.77;52.58;101753.22;5043382;28;19956;-54
2022/07/29 08:07:14;;;;;;;;;;;;;;;20.79;52.55;101745.94;5048741;28;19971;-52
2022/07/29 08:09:39;;;;;;;;;;;;;;;20.84;52.35;101748.22;5046419;28;19935;-55
2022/07/29 08:12:05;;;;;;;;;;;;;;;20.89;52.41;101747.81;5040147;28;19917;-51
2022/07/29 08:14:31;;;;;;;;;;;;;;;20.93;52.56;101744.75;5041142;28;19974;-52
2022/07/29 08:16:56;;;;;;;;;;;;;;;20.98;52.27;101744.34;5046294;28;19912;-51
2022/07/29 08:19:21;;;;;;;;;;;;;;;21.02;52.38;101749.31;5047011;28;19939;-51
2022/07/29 08:21:47;;;;;;;;;;;;;;;21.08;52.34;101742.56;5043304;28;19913;-54
2022/07/29 08:26:56;;;;;;;;;;;;;;;21.20;52.03;101746.00;5045387;28;19923;-54
2022/07/29 08:29:21;;;;;;;;;;;;;;;21.25;51.78;101743.75;5048119;28;19921;-55
2022/07/29 08:31:47;;;;;;;;;;;;;;;21.32;51.69;101752.97;5046635;28;20011;-54
2022/07/29 08:34:12;;;;;;;;;;;;;;;21.39;51.67;101745.22;5047332;28;19996;-58
2022/07/29 08:36:38;;;;;;;;;;;;;;;21.45;51.70;101751.88;5051110;28;20015;-52
2022/07/29 08:39:03;;;;;;;;;;;;;;;21.52;51.33;101745.00;5047782;28;19920;-53
2022/07/29 08:41:29;;;;;;;;;;;;;;;21.58;51.60;101749.78;5049641;28;19912;-54
2022/07/29 08:43:54;;;;;;;;;;;;;;;21.65;51.14;101743.94;5044653;28;20388;-57
2022/07/29 08:46:20;;;;;;;;;;;;;;;21.70;51.20;101742.53;5046778;28;19916;-57
2022/07/29 08:48:46;;;;;;;;;;;;;;;21.77;51.01;101742.84;5048653;28;19924;-54
2022/07/29 08:51:17;;;;;;;;;;;;;;;21.87;50.98;101743.69;5047813;28;19923;-54
2022/07/29 08:53:43;;;;;;;;;;;;;;;21.97;50.58;101743.69;5062187;28;19982;-53
2022/07/29 08:56:11;;;;;;;;;;;;;;;22.05;50.74;101741.19;5054957;28;19916;-52
2022/07/29 08:58:36;;;;;;;;;;;;;;;22.14;50.40;101739.50;5052116;28;19931;-50
2022/07/29 09:01:02;;;;;;;;;;;;;;;22.22;50.04;101736.13;5052173;28;19913;-55
2022/07/29 09:03:31;;;;;;;;;;;;;;;22.29;49.90;101736.41;5047985;28;19912;-51
2022/07/29 09:06:01;;;;;;;;;;;;;;;22.37;49.70;101739.19;5048514;28;19935;-52
2022/07/29 09:08:26;;;;;;;;;;;;;;;22.44;49.46;101735.00;5049809;28;20385;-56
2022/07/29 09:10:53;;;;;;;;;;;;;;;22.53;49.35;101739.50;5042102;28;20461;-50
2022/07/29 09:13:18;;;;;;;;;;;;;;;22.59;49.00;101740.75;5044000;28;19924;-54
2022/07/29 09:15:44;;;;;;;;;;;;;;;22.66;48.92;101739.22;5050017;28;19917;-58
2022/07/29 09:18:12;;;;;;;;;;;;;;;22.76;48.62;101746.38;5040701;28;19932;-56
2022/07/29 09:23:22;;;;;;;;;;;;;;;22.90;48.30;101737.88;5046325;28;19923;-52
2022/07/29 09:25:47;;;;;;;;;;;;;;;22.95;48.19;101737.41;5046600;28;19920;-52
2022/07/29 09:28:16;;;;;;;;;;;;;;;22.99;48.09;101733.47;5045949;28;20342;-52
2022/07/29 09:31:01;;;;;;;;;;;;;;;23.04;47.90;101730.34;5051180;28;19916;-55
2022/07/29 09:33:34;;;;;;;;;;;;;;;23.08;47.73;101729.88;5051525;28;20314;-53
2022/07/29 09:36:06;;;;;;;;;;;;;;;23.12;47.74;101733.16;5053158;28;19913;-52
2022/07/29 09:38:33;;;;;;;;;;;;;;;23.16;47.59;101733.69;5042226;28;19921;-52
2022/07/29 09:40:59;;;;;;;;;;;;;;;23.22;47.35;101733.09;5044053;28;19923;-52
2022/07/29 09:43:24;;;;;;;;;;;;;;;23.27;47.10;101731.69;5053748;28;19955;-58
2022/07/29 09:45:50;;;;;;;;;;;;;;;23.33;47.01;101727.56;5051599;28;19963;-55
2022/07/29 09:48:17;;;;;;;;;;;;;;;23.39;47.03;101729.63;5044623;28;19916;-51
2022/07/29 09:50:43;;;;;;;;;;;;;;;23.46;46.69;101723.69;5045764;28;19916;-51
2022/07/29 09:53:09;;;;;;;;;;;;;;;23.51;46.45;101721.41;5048937;28;19948;-52
2022/07/29 09:55:51;;;;;;;;;;;;;;;23.56;46.40;101716.41;5046511;28;19909;-52
2022/07/29 09:58:17;;;;;;;;;;;;;;;23.63;46.16;101722.88;5050076;28;19964;-51
2022/07/29 10:00:43;;;;;;;;;;;;;;;23.70;45.84;101720.44;5047522;28;20308;-55
2022/07/29 10:03:08;;;;;;;;;;;;;;;23.78;45.60;101715.13;5049765;28;19939;-52
2022/07/29 10:05:34;;;;;;;;;;;;;;;23.84;45.69;101713.66;5042077;28;19921;-51
2022/07/29 10:07:59;;;;;;;;;;;;;;;23.89;45.34;101712.25;5044455;28;19917;-52
2022/07/29 10:10:28;;;;;;;;;;;;;;;23.97;45.26;101721.38;5048920;28;19912;-51
2022/07/29 10:13:01;;;;;;;;;;;;;;;24.02;45.04;101711.88;5048228;28;19923;-51
2022/07/29 10:15:27;;;;;;;;;;;;;;;24.10;44.72;101711.09;5050165;28;19913;-55
2022/07/29 10:17:53;;;;;;;;;;;;;;;24.15;44.66;101698.03;5050170;28;19923;-53
2022/07/29 10:20:19;;;;;;;;;;;;;;;24.22;44.22;101700.09;5046783;28;20439;-52
2022/07/29 10:22:46;;;;;;;;;;;;;;;24.27;44.03;101706.72;5053021;28;20435;-51
2022/07/29 10:25:12;;;;;;;;;;;;;;;24.31;43.67;101697.31;5044019;28;20320;-51
2022/07/29 10:27:38;;;;;;;;;;;;;;;24.37;43.51;101695.84;5048314;28;19909;-56
2022/07/29 10:30:04;;;;;;;;;;;;;;;24.40;43.32;101697.41;5052169;28;19921;-53
2022/07/29 10:32:32;;;;;;;;;;;;;;;24.43;43.07;101699.78;5054453;28;19927;-52
2022/07/29 10:35:06;;;;;;;;;;;;;;;24.45;42.93;101692.38;5052023;28;19915;-51
2022/07/29 10:37:49;;;;;;;;;;;;;;;24.48;42.50;101697.44;5053022;28;19924;-53
2022/07/29 10:43:07;;;;;;;;;;;;;;;24.50;42.02;101701.66;5049423;28;19936;-52
2022/07/29 10:45:33;;;;;;;;;;;;;;;24.50;41.93;101698.13;5054915;28;19917;-53
2022/07/29 10:48:05;;;;;;;;;;;;;;;24.50;41.56;101695.44;5050562;28;19921;-52
2022/07/29 10:50:50;;;;;;;;;;;;;;;24.49;41.45;101693.75;5055145;28;20047;-52
2022/07/29 10:53:15;;;;;;;;;;;;;;;24.49;41.25;101683.84;5056491;28;19921;-55
2022/07/29 10:55:42;;;;;;;;;;;;;;;24.51;41.12;101689.06;5049892;28;19966;-54
2022/07/29 10:58:25;;;;;;;;;;;;;;;24.51;41.25;101692.56;5044179;28;19920;-54
2022/07/29 11:00:51;;;;;;;;;;;;;;;24.53;41.20;101692.44;5045295;28;19913;-55
2022/07/29 11:03:35;;;;;;;;;;;;;;;24.53;41.15;101686.19;5070645;28;19931;-51
2022/07/29 11:06:01;;;;;;;;;;;;;;;24.55;41.13;101694.97;5065397;28;19920;-54
2022/07/29 11:08:26;;;;;;;;;;;;;;;24.56;41.22;101693.97;5051946;28;19920;-52
2022/07/29 11:11:12;;;;;;;;;;;;;;;24.57;40.86;101685.75;5051465;28;19921;-54
2022/07/29 11:13:43;;;;;;;;;;;;;;;24.60;40.85;101690.78;5050911;28;20026;-51
2022/07/29 11:16:09;;;;;;;;;;;;;;;24.63;40.75;101693.16;5046156;28;19988;-52
2022/07/29 11:18:34;;;;;;;;;;;;;;;24.66;40.75;101687.47;5046285;28;20366;-54
2022/07/29 11:20:59;;;;;;;;;;;;;;;24.72;40.38;101693.28;5049042;28;19924;-51
2022/07/29 11:23:29;;;;;;;;;;;;;;;24.74;40.48;101691.22;5053634;28;19932;-51
2022/07/29 11:26:14;;;;;;;;;;;;;;;24.77;40.26;101689.09;5048169;28;19962;-55
2022/07/29 11:28:48;;;;;;;;;;;;;;;24.86;40.08;101689.13;5047868;28;19912;-52
2022/07/29 11:31:15;;;;;;;;;;;;;;;24.93;40.09;101685.63;5047111;28;19966;-52
2022/07/29 11:33:41;;;;;;;;;;;;;;;24.99;39.93;101672.53;5050166;28;19924;-53
2022/07/29 11:36:10;;;;;;;;;;;;;;;25.06;39.86;101673.56;5051516;28;19913;-51
2022/07/29 11:38:36;;;;;;;;;;;;;;;25.11;39.66;101676.63;5050956;28;19917;-51
2022/07/29 11:41:17;;;;;;;;;;;;;;;25.16;39.74;101673.44;5049494;28;19917;-53
2022/07/29 11:43:45;;;;;;;;;;;;;;;25.22;39.56;101680.88;5043820;28;20387;-53
2022/07/29 11:46:11;;;;;;;;;;;;;;;25.28;39.47;101680.22;5047490;28;19920;-54
2022/07/29 11:48:41;;;;;;;;;;;;;;;25.32;39.47;101664.59;5046936;28;19932;-53
2022/07/29 11:51:10;;;;;;;;;;;;;;;25.35;39.11;101666.94;5049030;28;19965;-53
2022/07/29 11:53:35;;;;;;;;;;;;;;;25.41;39.26;101666.28;5063992;28;19915;-58
2022/07/29 11:56:01;;;;;;;;;;;;;;;25.47;39.09;101665.66;5048755;28;19920;-51
2022/07/29 11:58:27;;;;;;;;;;;;;;;25.54;39.20;101669.38;5048071;28;19986;-54
2022/07/29 12:00:53;;;;;;;;;;;;;;;25.60;38.90;101665.16;5044921;28;19927;-56
2022/07/29 12:03:28;;;;;;;;;;;;;;;25.66;38.82;101658.25;5046008;28;19917;-52
2022/07/29 12:05:54;;;;;;;;;;;;;;;25.69;38.66;101663.34;5049144;28;19913;-53
2022/07/29 12:08:21;;;;;;;;;;;;;;;25.72;38.51;101658.44;5050420;28;19924;-51
2022/07/29 12:10:47;;;;;;;;;;;;;;;25.78;38.32;101659.66;5050088;28;19917;-54
2022/07/29 12:13:13;;;;;;;;;;;;;;;25.84;38.46;101656.28;5049187;28;19921;-52
2022/07/29 12:15:39;;;;;;;;;;;;;;;25.89;38.24;101653.06;5050490;28;19919;-52
2022/07/29 12:18:11;;;;;;;;;;;;;;;25.93;38.17;101650.91;5054214;28;19912;-52
2022/07/29 12:20:37;;;;;;;;;;;;;;;25.96;38.13;101645.16;5049394;28;20375;-55
2022/07/29 12:23:07;;;;;;;;;;;;;;;25.99;38.10;101650.19;5051033;28;20005;-53
2022/07/29 12:25:33;;;;;;;;;;;;;;;26.01;37.86;101650.88;5048683;28;19928;-52
2022/07/29 12:28:03;;;;;;;;;;;;;;;26.03;37.98;101648.88;5048993;28;19932;-55
2022/07/29 12:30:39;;;;;;;;;;;;;;;26.06;37.80;101653.06;5051688;28;19954;-55
2022/07/29 12:33:30;;;;;;;;;;;;;;;26.07;37.84;101655.63;5047584;28;19927;-53
2022/07/29 12:35:57;;;;;;;;;;;;;;;26.11;37.61;101651.56;5048532;28;20397;-51
2022/07/29 12:38:23;;;;;;;;;;;;;;;26.17;37.67;101648.22;5052877;28;20438;-52
2022/07/29 12:40:50;;;;;;;;;;;;;;;26.24;37.68;101639.44;5048575;28;19916;-51
2022/07/29 12:43:17;;;;;;;;;;;;;;;26.27;37.47;101639.09;5049054;28;19999;-59
2022/07/29 12:45:47;;;;;;;;;;;;;;;26.31;37.27;101635.91;5043859;28;19920;-52
2022/07/29 12:48:13;;;;;;;;;;;;;;;26.36;37.09;101632.69;5048090;28;20304;-52
2022/07/29 12:50:57;;;;;;;;;;;;;;;26.39;36.92;101632.34;5046081;28;20402;-52